createdAt,value
2023-05-14T00:01:30.096Z,2.40
2023-05-14T00:05:27.544Z,2.00
2023-05-14T00:09:27.086Z,2.10
2023-05-14T00:13:24.676Z,2.00
2023-05-14T00:17:23.960Z,2.00
2023-05-14T00:21:21.457Z,2.00
2023-05-14T00:25:20.700Z,1.80
2023-05-14T00:29:18.466Z,1.90
2023-05-14T00:33:19.265Z,2.00
2023-05-14T00:37:17.276Z,1.90
2023-05-14T00:41:16.420Z,2.00
2023-05-14T00:45:13.551Z,2.60
2023-05-14T00:49:13.048Z,2.60
2023-05-14T00:53:10.848Z,2.20
2023-05-14T00:57:10.161Z,2.20
2023-05-14T01:01:07.539Z,2.10
2023-05-14T01:05:07.139Z,2.80
2023-05-14T01:09:05.605Z,2.30
2023-05-14T01:13:05.063Z,2.20
2023-05-14T01:17:02.540Z,2.10
2023-05-14T01:21:01.718Z,2.20
2023-05-14T01:24:59.835Z,2.90
2023-05-14T01:28:59.646Z,2.00
2023-05-14T01:32:56.637Z,2.20
2023-05-14T01:36:56.371Z,2.40
2023-05-14T01:40:54.283Z,2.30
2023-05-14T01:44:54.554Z,2.00
2023-05-14T01:48:51.285Z,2.30
2023-05-14T01:52:51.574Z,2.50
2023-05-14T01:56:48.111Z,2.30
2023-05-14T02:00:48.442Z,2.20
2023-05-14T02:04:45.384Z,2.40
2023-05-14T02:08:45.614Z,2.20
2023-05-14T02:12:43.061Z,4.00
2023-05-14T02:16:42.514Z,5.70
2023-05-14T02:20:39.081Z,3.20
2023-05-14T02:24:38.578Z,2.80
2023-05-14T02:28:35.190Z,2.90
2023-05-14T02:32:34.659Z,2.80
2023-05-14T02:36:32.242Z,2.80
2023-05-14T02:40:31.803Z,2.50
2023-05-14T02:44:28.574Z,3.30
2023-05-14T02:48:27.840Z,3.10
2023-05-14T02:52:23.701Z,3.30
2023-05-14T02:56:23.218Z,3.40
2023-05-14T03:00:18.836Z,2.90
2023-05-14T03:04:18.199Z,3.60
2023-05-14T03:08:16.577Z,3.20
2023-05-14T03:12:18.168Z,4.00
2023-05-14T03:16:16.731Z,3.20
2023-05-14T03:20:17.116Z,2.70
2023-05-14T03:24:15.168Z,2.90
2023-05-14T03:28:02.667Z,2.60
2023-05-14T03:31:47.509Z,3.00
2023-05-14T03:35:32.784Z,3.00
2023-05-14T03:39:17.692Z,2.70
2023-05-14T03:43:02.885Z,2.90
2023-05-14T03:46:48.280Z,3.40
2023-05-14T03:50:33.726Z,2.80
2023-05-14T03:54:24.708Z,2.50
2023-05-14T03:58:15.718Z,2.80
2023-05-14T04:02:07.055Z,3.10
2023-05-14T04:06:07.160Z,2.60
2023-05-14T04:10:06.096Z,2.50
2023-05-14T04:14:08.650Z,2.90
2023-05-14T04:18:05.799Z,2.80
2023-05-14T04:22:06.089Z,2.30
2023-05-14T04:26:03.798Z,2.30
2023-05-14T04:30:04.287Z,2.60
2023-05-14T04:33:57.667Z,2.70
2023-05-14T04:37:42.751Z,6.00
2023-05-14T04:41:27.750Z,3.80
2023-05-14T04:45:12.887Z,2.20
2023-05-14T04:48:58.153Z,2.40
2023-05-14T04:52:43.332Z,2.20
2023-05-14T04:56:28.237Z,2.20
2023-05-14T05:00:13.338Z,2.30
2023-05-14T05:03:58.202Z,1.90
2023-05-14T05:07:43.396Z,2.00
2023-05-14T05:11:28.274Z,2.20
2023-05-14T05:15:13.485Z,1.70
2023-05-14T05:18:58.735Z,1.60
2023-05-14T05:22:43.906Z,2.20
2023-05-14T05:26:34.691Z,3.60
2023-05-14T05:30:32.861Z,4.50
2023-05-14T05:34:34.287Z,2.90
2023-05-14T05:38:32.863Z,7.40
2023-05-14T05:42:34.414Z,6.30
2023-05-14T05:46:32.914Z,4.20
2023-05-14T05:50:34.464Z,3.60
2023-05-14T05:54:32.895Z,2.50
2023-05-14T05:58:34.256Z,2.70
2023-05-14T06:02:33.041Z,2.90
2023-05-14T06:06:34.287Z,2.70
2023-05-14T06:10:35.342Z,2.60
2023-05-14T06:14:36.428Z,2.20
2023-05-14T06:18:34.063Z,2.00
2023-05-14T06:22:35.405Z,1.90
2023-05-14T06:26:33.902Z,1.80
2023-05-14T06:30:35.361Z,1.70
2023-05-14T06:34:33.260Z,1.90
2023-05-14T06:38:34.426Z,2.00
2023-05-14T06:42:33.056Z,2.00
2023-05-14T06:46:34.414Z,1.90
2023-05-14T06:50:33.111Z,2.00
2023-05-14T06:54:34.441Z,1.80
2023-05-14T06:58:33.064Z,2.00
2023-05-14T07:02:34.565Z,1.90
2023-05-14T07:06:39.232Z,1.90
2023-05-14T07:10:27.796Z,2.00
2023-05-14T07:14:16.161Z,2.30
2023-05-14T07:18:01.368Z,2.10
2023-05-14T07:21:46.564Z,2.50
2023-05-14T07:25:32.592Z,2.00
2023-05-14T07:29:17.562Z,2.40
2023-05-14T07:33:02.686Z,1.80
2023-05-14T07:36:54.764Z,2.40
2023-05-14T07:40:53.864Z,2.40
2023-05-14T07:44:49.134Z,2.00
2023-05-14T07:48:48.307Z,2.20
2023-05-14T07:52:44.681Z,2.00
2023-05-14T07:56:44.075Z,2.40
2023-05-14T08:00:39.387Z,2.00
2023-05-14T08:04:38.701Z,2.10
2023-05-14T08:08:23.931Z,2.40
2023-05-14T08:12:08.925Z,2.00
2023-05-14T08:15:54.109Z,2.80
2023-05-14T08:19:39.022Z,2.20
2023-05-14T08:23:23.893Z,2.90
2023-05-14T08:27:08.936Z,2.50
2023-05-14T08:30:54.650Z,2.70
2023-05-14T08:34:39.708Z,2.50
2023-05-14T08:38:30.578Z,2.20
2023-05-14T08:42:22.473Z,2.10
2023-05-14T08:46:13.624Z,2.80
2023-05-14T08:50:12.904Z,2.20
2023-05-14T08:54:08.352Z,2.70
2023-05-14T08:58:07.373Z,2.60
2023-05-14T09:02:02.393Z,2.40
2023-05-14T09:06:01.750Z,2.10
2023-05-14T09:09:57.478Z,2.30
2023-05-14T09:13:57.147Z,2.10
2023-05-14T09:17:42.254Z,2.20
2023-05-14T09:21:27.443Z,2.40
2023-05-14T09:25:12.521Z,2.50
2023-05-14T09:29:04.153Z,2.30
2023-05-14T09:32:57.264Z,2.10
2023-05-14T09:36:56.421Z,2.40
2023-05-14T09:40:51.289Z,2.20
2023-05-14T09:44:50.208Z,2.40
2023-05-14T09:48:45.554Z,2.00
2023-05-14T09:52:45.087Z,2.70
2023-05-14T09:56:40.802Z,2.60
2023-05-14T10:00:39.846Z,2.60
2023-05-14T10:04:35.696Z,2.60
2023-05-14T10:08:35.212Z,2.20
2023-05-14T10:12:30.858Z,2.80
2023-05-14T10:16:30.410Z,2.10
2023-05-14T10:20:25.930Z,2.10
2023-05-14T10:24:25.534Z,1.90
2023-05-14T10:28:20.531Z,2.20
2023-05-14T10:32:19.615Z,2.10
2023-05-14T10:36:14.500Z,4.10
2023-05-14T10:40:13.366Z,2.10
2023-05-14T10:44:08.419Z,2.10
2023-05-14T10:48:07.599Z,2.30
2023-05-14T10:52:03.601Z,2.10
2023-05-14T10:56:03.052Z,1.90
2023-05-14T10:59:58.596Z,2.00
2023-05-14T11:03:58.242Z,2.40
2023-05-14T11:07:56.440Z,2.20
2023-05-14T11:11:58.072Z,2.30
2023-05-14T11:15:56.440Z,2.20
2023-05-14T11:19:48.854Z,1.70
2023-05-14T11:23:35.513Z,1.60
2023-05-14T11:27:20.569Z,2.50
2023-05-14T11:31:05.751Z,2.40
2023-05-14T11:34:51.003Z,2.30
2023-05-14T11:38:36.052Z,2.00
2023-05-14T11:42:27.652Z,2.00
2023-05-14T11:46:31.188Z,2.60
2023-05-14T11:50:30.988Z,2.20
2023-05-14T11:54:28.891Z,2.90
2023-05-14T11:58:29.024Z,1.90
2023-05-14T12:02:26.884Z,1.70
2023-05-14T12:06:27.057Z,1.60
2023-05-14T12:10:25.768Z,1.50
2023-05-14T12:14:24.330Z,1.30
2023-05-14T12:18:22.996Z,1.40
2023-05-14T12:22:09.449Z,1.50
2023-05-14T12:25:54.252Z,1.80
2023-05-14T12:29:45.180Z,1.90
2023-05-14T12:33:38.335Z,1.90
2023-05-14T12:41:01.812Z,1.90
2023-05-14T12:44:52.733Z,2.10
2023-05-14T12:48:53.357Z,1.60
2023-05-14T12:52:50.669Z,1.70
2023-05-14T12:56:50.097Z,1.70
2023-05-14T13:00:47.892Z,1.60
2023-05-14T13:04:48.257Z,1.60
2023-05-14T13:08:45.799Z,1.50
2023-05-14T13:12:45.093Z,1.80
2023-05-14T13:16:41.962Z,1.60
2023-05-14T13:20:27.319Z,2.10
2023-05-14T13:24:12.247Z,1.80
2023-05-14T13:27:57.157Z,2.90
2023-05-14T13:31:42.246Z,1.60
2023-05-14T13:35:27.640Z,2.00
2023-05-14T13:39:19.650Z,1.80
2023-05-14T13:43:18.761Z,2.10
2023-05-14T13:47:15.848Z,2.00
2023-05-14T13:51:15.158Z,1.90
2023-05-14T13:55:13.337Z,2.00
2023-05-14T13:59:13.313Z,1.90
2023-05-14T14:03:10.788Z,1.60
2023-05-14T14:07:10.313Z,1.70
2023-05-14T14:11:07.942Z,1.90
2023-05-14T14:15:07.352Z,2.10
2023-05-14T14:19:05.015Z,1.70
2023-05-14T14:23:05.494Z,1.80
2023-05-14T14:27:02.872Z,1.90
2023-05-14T14:31:02.312Z,2.00
2023-05-14T14:35:00.058Z,2.00
2023-05-14T14:39:00.337Z,1.90
2023-05-14T14:42:57.901Z,2.20
2023-05-14T14:46:58.275Z,1.80
2023-05-14T14:50:56.209Z,2.10
2023-05-14T14:54:56.458Z,1.90
2023-05-14T14:58:53.761Z,1.80
2023-05-14T15:02:53.550Z,2.70
2023-05-14T15:06:57.846Z,2.10
2023-05-14T15:10:59.615Z,1.90
2023-05-14T15:14:56.989Z,2.80
2023-05-14T15:18:57.873Z,1.90
2023-05-14T15:22:53.046Z,2.10
2023-05-14T15:26:52.750Z,2.30
2023-05-14T15:30:38.615Z,2.10
2023-05-14T15:34:23.584Z,2.20
2023-05-14T15:38:08.652Z,2.40
2023-05-14T15:41:53.593Z,2.20
2023-05-14T15:45:38.743Z,2.20
2023-05-14T15:49:23.709Z,1.80
2023-05-14T15:53:08.495Z,2.10
2023-05-14T15:56:59.929Z,2.10
2023-05-14T16:00:57.146Z,2.00
2023-05-14T16:04:56.648Z,1.90
2023-05-14T16:08:52.012Z,2.10
2023-05-14T16:12:50.931Z,2.10
2023-05-14T16:16:46.020Z,3.20
2023-05-14T16:20:45.940Z,3.10
2023-05-14T16:24:41.181Z,2.30
2023-05-14T16:28:39.997Z,2.30
2023-05-14T16:32:25.050Z,2.40
2023-05-14T16:36:10.299Z,2.60
2023-05-14T16:39:55.517Z,2.80
2023-05-14T16:43:40.347Z,2.60
2023-05-14T16:47:25.791Z,2.20
2023-05-14T16:51:10.843Z,2.80
2023-05-14T16:54:55.773Z,2.50
2023-05-14T16:58:46.869Z,2.60
2023-05-14T17:02:39.799Z,3.00
2023-05-14T17:06:42.026Z,3.00
2023-05-14T17:10:37.062Z,2.90
2023-05-14T17:14:36.319Z,3.00
2023-05-14T17:18:32.518Z,3.20
2023-05-14T17:22:31.717Z,3.50
2023-05-14T17:26:27.387Z,3.20
2023-05-14T17:30:26.780Z,3.80
2023-05-14T17:34:22.540Z,3.10
2023-05-14T17:38:21.663Z,3.50
2023-05-14T17:42:17.226Z,3.00
2023-05-14T17:46:16.721Z,3.00
2023-05-14T17:50:12.173Z,5.20
2023-05-14T17:54:11.214Z,3.50
2023-05-14T17:58:06.245Z,3.40
2023-05-14T18:02:06.054Z,3.20
2023-05-14T18:06:01.538Z,3.30
2023-05-14T18:10:00.924Z,3.50
2023-05-14T18:13:56.196Z,3.90
2023-05-14T18:17:55.437Z,4.00
2023-05-14T18:21:51.426Z,3.70
2023-05-14T18:25:51.070Z,3.70
2023-05-14T18:29:46.281Z,3.30
2023-05-14T18:33:46.061Z,3.30
2023-05-14T18:37:41.685Z,3.70
2023-05-14T18:41:40.956Z,3.40
2023-05-14T18:45:36.498Z,3.70
2023-05-14T18:49:35.554Z,3.60
2023-05-14T18:53:31.546Z,4.00
2023-05-14T18:57:30.864Z,4.90
2023-05-14T19:01:26.335Z,5.90
2023-05-14T19:05:30.277Z,12.80
2023-05-14T19:09:28.121Z,12.00
2023-05-14T19:13:29.827Z,9.90
2023-05-14T19:17:28.353Z,6.00
2023-05-14T19:21:26.272Z,5.90
2023-05-14T19:25:28.509Z,3.90
2023-05-14T19:29:27.210Z,4.50
2023-05-14T19:33:28.802Z,3.90
2023-05-14T19:37:27.308Z,5.00
2023-05-14T19:41:28.738Z,4.80
2023-05-14T19:45:27.381Z,3.70
2023-05-14T19:49:28.956Z,4.00
2023-05-14T19:53:27.341Z,4.30
2023-05-14T19:57:28.848Z,4.00
2023-05-14T20:01:27.368Z,3.60
2023-05-14T20:05:28.839Z,4.00
2023-05-14T20:09:27.587Z,3.70
2023-05-14T20:13:28.868Z,5.00
2023-05-14T20:17:27.277Z,4.30
2023-05-14T20:21:28.809Z,3.50
2023-05-14T20:25:28.583Z,4.40
2023-05-14T20:29:30.371Z,4.40
2023-05-14T20:33:28.567Z,3.60
2023-05-14T20:37:29.712Z,3.80
2023-05-14T20:41:28.516Z,3.50
2023-05-14T20:45:31.771Z,3.70
2023-05-14T20:49:30.554Z,4.10
2023-05-14T20:53:31.890Z,4.10
2023-05-14T20:57:29.159Z,4.00
2023-05-14T21:01:29.562Z,4.00
2023-05-14T21:05:26.498Z,4.30
2023-05-14T21:09:26.176Z,4.40
2023-05-14T21:13:18.274Z,3.70
2023-05-14T21:17:19.665Z,4.70
2023-05-14T21:21:14.836Z,3.70
2023-05-14T21:25:13.498Z,4.60
2023-05-14T21:29:08.254Z,3.90
2023-05-14T21:33:06.950Z,4.10
2023-05-14T21:37:03.088Z,3.80
2023-05-14T21:40:59.998Z,4.10
2023-05-14T21:44:59.301Z,4.10
2023-05-14T21:48:58.842Z,4.50
2023-05-14T21:52:54.691Z,4.20
2023-05-14T21:56:53.728Z,4.20
2023-05-14T22:00:49.839Z,3.80
2023-05-14T22:04:49.524Z,3.80
2023-05-14T22:08:42.641Z,4.30
2023-05-14T22:12:45.832Z,4.60
2023-05-14T22:16:41.698Z,4.30
2023-05-14T22:20:41.453Z,4.40
2023-05-14T22:24:36.730Z,4.10
2023-05-14T22:28:35.972Z,4.30
2023-05-14T22:32:31.827Z,4.50
2023-05-14T22:36:28.885Z,4.00
2023-05-14T22:40:28.554Z,3.90
2023-05-14T22:44:29.789Z,4.00
2023-05-14T22:48:26.032Z,4.40
2023-05-14T22:52:25.540Z,4.00
2023-05-14T22:56:21.008Z,4.20
2023-05-14T23:00:18.415Z,4.20
2023-05-14T23:04:11.852Z,4.70
2023-05-14T23:08:10.468Z,4.30
2023-05-14T23:12:12.227Z,4.50
2023-05-14T23:16:10.711Z,4.60
2023-05-14T23:20:12.222Z,4.20
2023-05-14T23:24:10.507Z,4.10
2023-05-14T23:28:12.193Z,4.20
2023-05-14T23:32:10.609Z,4.00
2023-05-14T23:36:12.329Z,4.40
2023-05-14T23:40:10.667Z,4.70
2023-05-14T23:44:12.090Z,4.30
2023-05-14T23:48:10.704Z,4.70
2023-05-14T23:52:12.321Z,4.30
2023-05-14T23:56:10.737Z,4.40
